PST,Max TemperatureF,Mean TemperatureF,Min TemperatureF,Max Dew PointF,MeanDew PointF,Min DewpointF,Max Humidity, Mean Humidity, Min Humidity, Max Sea Level PressureIn, Mean Sea Level PressureIn, Min Sea Level PressureIn, Max VisibilityMiles, Mean VisibilityMiles, Min VisibilityMiles, Max Wind SpeedMPH, Mean Wind SpeedMPH, Max Gust SpeedMPH,PrecipitationIn, CloudCover, Events, WindDirDegrees
2010-12-1,56,47,37,42,36,32,85,66,47,30.33,30.22,30.12,10,9,6,8,1,9,0.00,0,,342
2010-12-2,59,49,39,46,40,35,86,76,66,30.11,30.08,30.06,10,9,7,6,0,8,0.00,2,,23
2010-12-3,59,53,47,48,45,44,86,74,62,30.08,30.02,29.95,9,7,5,8,2,9,0.00,2,,298
2010-12-4,66,58,49,48,45,37,86,63,39,30.06,30.00,29.94,10,9,5,22,5,31,T,7,Rain,155
2010-12-5,68,58,48,52,48,45,86,73,60,30.05,29.98,29.86,10,10,5,23,8,29,0.21,6,Rain,131
2010-12-6,67,58,49,52,48,44,86,66,45,30.32,30.24,30.06,10,10,5,16,5,25,0.06,3,Rain,169
2010-12-7,63,54,44,48,46,42,93,75,56,30.30,30.23,30.19,10,10,10,9,2,12,0.00,0,,355
2010-12-8,61,56,50,56,50,45,87,80,72,30.23,30.19,30.15,10,10,7,13,7,17,0.22,7,Rain,134
2010-12-9,65,61,57,58,56,55,93,83,73,30.25,30.20,30.17,10,8,5,7,1,8,0.01,7,Rain,327
2010-12-10,67,63,59,58,56,53,90,79,68,30.27,30.23,30.18,10,9,5,10,3,14,T,7,,11
2010-12-11,66,60,54,58,56,52,100,87,73,30.34,30.28,30.25,10,5,2,7,2,12,0.00,6,,338
2010-12-12,61,58,55,54,53,52,93,86,78,30.31,30.25,30.18,9,6,2,9,1,12,0.00,8,,329
2010-12-13,59,56,52,51,50,48,89,81,72,30.17,30.10,30.04,10,9,7,9,2,13,0.00,7,,319
2010-12-14,63,58,53,55,53,48,100,86,72,30.05,30.01,29.95,10,9,2,14,4,18,0.27,7,Rain,179
2010-12-15,58,51,43,51,45,38,100,74,47,30.05,30.01,29.98,10,10,3,8,2,10,0.00,3,,292
2010-12-16,57,47,37,47,41,36,92,70,47,30.01,29.96,29.90,10,10,8,10,2,12,0.03,2,Rain,360
2010-12-17,59,54,48,54,48,46,96,84,72,29.90,29.82,29.73,10,4,2,25,6,33,0.33,8,Rain,57
2010-12-18,63,59,55,56,54,51,86,77,67,29.85,29.78,29.74,10,9,3,23,7,30,0.12,8,Rain,147
2010-12-19,63,57,51,57,51,43,100,81,62,29.77,29.64,29.53,10,6,2,21,6,32,1.00,6,Rain,216
2010-12-20,54,52,49,45,43,41,80,72,64,29.83,29.78,29.75,10,10,10,16,9,23,T,4,Rain,142
2010-12-21,61,55,49,51,45,42,93,73,53,29.84,29.78,29.72,10,10,10,17,8,24,0.15,5,Rain,142
2010-12-22,61,54,47,54,50,45,96,86,75,30.08,29.83,29.69,10,10,7,13,4,17,0.03,7,Rain,321
2010-12-23,59,51,43,46,42,35,93,67,40,30.25,30.18,30.08,10,10,10,9,2,10,0.00,1,,8
2010-12-24,61,51,40,46,43,39,89,70,51,30.19,30.11,29.98,10,10,10,15,4,20,0.00,0,,137
2010-12-25,60,55,49,49,47,43,89,76,62,30.06,29.91,29.81,10,9,5,20,7,29,0.33,4,Rain,145
2010-12-26,61,53,45,47,43,38,100,72,44,30.37,30.25,30.07,10,10,9,12,4,14,0.01,4,Rain,174
2010-12-27,58,51,44,48,45,42,93,80,66,30.38,30.33,30.27,10,10,7,10,2,14,0.00,3,,316
2010-12-28,57,52,47,52,46,43,89,78,66,30.26,30.03,29.72,10,9,5,20,5,28,0.52,7,Rain,131
2010-12-29,56,50,44,53,42,30,100,73,46,29.98,29.81,29.70,10,10,3,24,12,41,0.17,5,Rain,294
2010-12-30,54,45,35,40,34,30,83,67,50,30.06,30.00,29.97,10,10,10,12,4,15,0.00,0,,325
2010-12-31,51,45,39,42,39,37,92,77,61,30.10,30.05,30.00,10,10,10,14,2,18,0.00,4,,327